sensor_id;sensor_type;location;lat;lon;timestamp;pressure;altitude;pressure_sealevel;temperature;humidity
37066;BME280;22981;43.080;25.550;2023-06-10T00:00:02;99062.22;;;15.87;68.53
37066;BME280;22981;43.080;25.550;2023-06-10T00:02:31;99063.30;;;15.88;68.38
37066;BME280;22981;43.080;25.550;2023-06-10T00:04:59;99060.58;;;15.83;68.53
37066;BME280;22981;43.080;25.550;2023-06-10T00:07:26;99055.45;;;15.82;68.68
37066;BME280;22981;43.080;25.550;2023-06-10T00:09:54;99052.49;;;15.88;68.60
37066;BME280;22981;43.080;25.550;2023-06-10T00:12:23;99053.07;;;15.95;68.56
37066;BME280;22981;43.080;25.550;2023-06-10T00:14:50;99049.30;;;16.01;68.57
37066;BME280;22981;43.080;25.550;2023-06-10T00:17:20;99005.77;;;15.77;68.37
37066;BME280;22981;43.080;25.550;2023-06-10T00:19:49;99048.52;;;16.09;68.29
37066;BME280;22981;43.080;25.550;2023-06-10T00:22:17;99048.24;;;16.02;68.38
37066;BME280;22981;43.080;25.550;2023-06-10T00:24:44;99045.49;;;15.92;68.56
37066;BME280;22981;43.080;25.550;2023-06-10T00:27:12;99048.72;;;15.87;68.61
37066;BME280;22981;43.080;25.550;2023-06-10T00:29:39;99050.30;;;15.80;68.75
37066;BME280;22981;43.080;25.550;2023-06-10T00:32:07;99048.14;;;15.80;68.81
37066;BME280;22981;43.080;25.550;2023-06-10T00:34:35;99050.30;;;15.80;68.86
37066;BME280;22981;43.080;25.550;2023-06-10T00:37:03;99046.55;;;15.84;68.87
37066;BME280;22981;43.080;25.550;2023-06-10T00:39:31;99051.14;;;15.88;68.82
37066;BME280;22981;43.080;25.550;2023-06-10T00:41:58;99050.63;;;15.91;68.75
37066;BME280;22981;43.080;25.550;2023-06-10T00:44:26;99058.47;;;15.95;68.74
37066;BME280;22981;43.080;25.550;2023-06-10T00:46:54;99054.16;;;15.99;68.75
37066;BME280;22981;43.080;25.550;2023-06-10T00:49:22;99059.30;;;15.98;68.82
37066;BME280;22981;43.080;25.550;2023-06-10T00:51:50;99055.23;;;15.96;68.91
37066;BME280;22981;43.080;25.550;2023-06-10T00:54:18;99059.52;;;15.87;69.07
37066;BME280;22981;43.080;25.550;2023-06-10T00:56:47;99055.44;;;15.76;69.22
37066;BME280;22981;43.080;25.550;2023-06-10T00:59:15;99058.14;;;15.76;69.37
37066;BME280;22981;43.080;25.550;2023-06-10T01:01:42;99062.97;;;15.74;69.45
37066;BME280;22981;43.080;25.550;2023-06-10T01:04:10;99069.47;;;15.76;69.55
37066;BME280;22981;43.080;25.550;2023-06-10T01:09:59;99077.31;;;15.83;69.48
37066;BME280;22981;43.080;25.550;2023-06-10T01:12:31;99072.72;;;15.83;69.36
37066;BME280;22981;43.080;25.550;2023-06-10T01:14:56;99066.49;;;15.80;69.33
37066;BME280;22981;43.080;25.550;2023-06-10T01:17:24;99073.53;;;15.84;69.37
37066;BME280;22981;43.080;25.550;2023-06-10T01:19:56;99070.30;;;15.82;69.46
37066;BME280;22981;43.080;25.550;2023-06-10T01:22:25;99070.27;;;15.79;69.45
37066;BME280;22981;43.080;25.550;2023-06-10T01:24:55;99075.92;;;15.72;69.63
37066;BME280;22981;43.080;25.550;2023-06-10T01:27:32;99072.94;;;15.71;69.68
37066;BME280;22981;43.080;25.550;2023-06-10T01:30:08;99080.52;;;15.72;69.68
37066;BME280;22981;43.080;25.550;2023-06-10T01:32:36;99068.88;;;15.71;69.73
37066;BME280;22981;43.080;25.550;2023-06-10T01:35:05;99066.19;;;15.71;69.67
37066;BME280;22981;43.080;25.550;2023-06-10T01:37:34;99059.98;;;15.71;69.66
37066;BME280;22981;43.080;25.550;2023-06-10T01:40:02;99066.92;;;15.62;69.91
37066;BME280;22981;43.080;25.550;2023-06-10T01:42:33;99068.50;;;15.52;70.10
37066;BME280;22981;43.080;25.550;2023-06-10T01:45:00;99063.62;;;15.49;70.24
37066;BME280;22981;43.080;25.550;2023-06-10T01:47:28;99072.52;;;15.47;70.28
37066;BME280;22981;43.080;25.550;2023-06-10T01:49:56;99072.23;;;15.44;70.33
37066;BME280;22981;43.080;25.550;2023-06-10T01:52:23;99066.56;;;15.45;70.32
37066;BME280;22981;43.080;25.550;2023-06-10T01:54:51;99069.26;;;15.45;70.36
37066;BME280;22981;43.080;25.550;2023-06-10T01:57:19;99070.36;;;15.47;70.38
37066;BME280;22981;43.080;25.550;2023-06-10T01:59:46;99070.63;;;15.48;70.42
37066;BME280;22981;43.080;25.550;2023-06-10T02:02:14;99068.72;;;15.43;70.31
37066;BME280;22981;43.080;25.550;2023-06-10T02:04:42;99069.75;;;15.35;70.44
37066;BME280;22981;43.080;25.550;2023-06-10T02:07:09;99075.89;;;15.27;70.65
37066;BME280;22981;43.080;25.550;2023-06-10T02:09:38;99072.13;;;15.26;70.74
37066;BME280;22981;43.080;25.550;2023-06-10T02:12:07;99080.21;;;15.26;70.78
37066;BME280;22981;43.080;25.550;2023-06-10T02:14:34;99077.75;;;15.24;70.85
37066;BME280;22981;43.080;25.550;2023-06-10T02:17:02;99069.66;;;15.24;70.84
37066;BME280;22981;43.080;25.550;2023-06-10T02:19:31;99079.67;;;15.26;70.78
37066;BME280;22981;43.080;25.550;2023-06-10T02:21:58;99081.05;;;15.29;70.73
37066;BME280;22981;43.080;25.550;2023-06-10T02:24:26;99079.70;;;15.32;70.66
37066;BME280;22981;43.080;25.550;2023-06-10T02:26:54;99080.23;;;15.31;70.62
37066;BME280;22981;43.080;25.550;2023-06-10T02:29:22;99078.89;;;15.31;70.67
37066;BME280;22981;43.080;25.550;2023-06-10T02:31:49;99080.21;;;15.26;70.69
37066;BME280;22981;43.080;25.550;2023-06-10T02:34:18;99078.00;;;15.18;70.92
37066;BME280;22981;43.080;25.550;2023-06-10T02:36:47;99076.62;;;15.15;71.07
37066;BME280;22981;43.080;25.550;2023-06-10T02:39:16;99078.77;;;15.16;71.15
37066;BME280;22981;43.080;25.550;2023-06-10T02:41:43;99081.23;;;15.17;71.14
37066;BME280;22981;43.080;25.550;2023-06-10T02:44:11;99084.73;;;15.18;71.12
37066;BME280;22981;43.080;25.550;2023-06-10T02:46:39;99087.91;;;15.10;71.26
37066;BME280;22981;43.080;25.550;2023-06-10T02:49:06;99083.83;;;15.05;71.50
37066;BME280;22981;43.080;25.550;2023-06-10T02:51:34;99088.95;;;15.06;71.59
37066;BME280;22981;43.080;25.550;2023-06-10T02:54:02;99089.77;;;15.04;71.58
37066;BME280;22981;43.080;25.550;2023-06-10T02:56:30;99093.27;;;15.05;71.62
37066;BME280;22981;43.080;25.550;2023-06-10T02:58:59;99093.84;;;15.09;71.55
37066;BME280;22981;43.080;25.550;2023-06-10T03:01:27;99095.48;;;15.13;71.47
37066;BME280;22981;43.080;25.550;2023-06-10T03:03:54;99094.64;;;15.10;71.52
37066;BME280;22981;43.080;25.550;2023-06-10T03:06:22;99096.77;;;15.05;71.52
37066;BME280;22981;43.080;25.550;2023-06-10T03:08:51;99093.77;;;15.01;71.60
37066;BME280;22981;43.080;25.550;2023-06-10T03:11:19;99095.70;;;15.06;71.57
37066;BME280;22981;43.080;25.550;2023-06-10T03:13:47;99096.84;;;15.13;71.49
37066;BME280;22981;43.080;25.550;2023-06-10T03:16:14;99094.71;;;15.17;71.35
37066;BME280;22981;43.080;25.550;2023-06-10T03:18:42;99097.98;;;15.22;71.42
37066;BME280;22981;43.080;25.550;2023-06-10T03:21:09;99100.67;;;15.24;71.48
37066;BME280;22981;43.080;25.550;2023-06-10T03:23:37;99103.97;;;15.29;71.54
37066;BME280;22981;43.080;25.550;2023-06-10T03:26:05;99105.29;;;15.26;71.43
37066;BME280;22981;43.080;25.550;2023-06-10T03:28:32;99113.02;;;15.15;71.48
37066;BME280;22981;43.080;25.550;2023-06-10T03:31:00;99114.30;;;15.05;71.62
37066;BME280;22981;43.080;25.550;2023-06-10T03:33:27;99109.10;;;14.98;71.69
37066;BME280;22981;43.080;25.550;2023-06-10T03:35:55;99102.59;;;14.92;72.01
37066;BME280;22981;43.080;25.550;2023-06-10T03:38:22;99102.02;;;14.90;72.28
37066;BME280;22981;43.080;25.550;2023-06-10T03:40:50;99104.79;;;14.97;72.39
37066;BME280;22981;43.080;25.550;2023-06-10T03:43:17;99108.91;;;15.05;72.33
37066;BME280;22981;43.080;25.550;2023-06-10T03:45:45;99106.27;;;15.13;72.29
37066;BME280;22981;43.080;25.550;2023-06-10T03:48:12;99104.15;;;15.20;72.19
37066;BME280;22981;43.080;25.550;2023-06-10T03:50:40;99106.10;;;15.27;72.10
37066;BME280;22981;43.080;25.550;2023-06-10T03:53:08;99099.14;;;15.36;71.92
37066;BME280;22981;43.080;25.550;2023-06-10T03:55:35;99104.33;;;15.43;71.84
37066;BME280;22981;43.080;25.550;2023-06-10T03:58:10;99101.63;;;15.45;71.92
37066;BME280;22981;43.080;25.550;2023-06-10T04:00:39;99101.63;;;15.43;72.06
37066;BME280;22981;43.080;25.550;2023-06-10T04:03:10;99102.71;;;15.42;72.25
37066;BME280;22981;43.080;25.550;2023-06-10T04:05:39;99105.14;;;15.43;72.45
37066;BME280;22981;43.080;25.550;2023-06-10T04:08:08;99104.11;;;15.52;72.42
37066;BME280;22981;43.080;25.550;2023-06-10T04:10:36;99104.94;;;15.58;72.36
37066;BME280;22981;43.080;25.550;2023-06-10T04:13:03;99107.94;;;15.61;72.41
37066;BME280;22981;43.080;25.550;2023-06-10T04:15:31;99106.05;;;15.62;72.37
37066;BME280;22981;43.080;25.550;2023-06-10T04:18:01;99106.31;;;15.63;72.36
37066;BME280;22981;43.080;25.550;2023-06-10T04:20:29;99103.14;;;15.66;72.37
37066;BME280;22981;43.080;25.550;2023-06-10T04:22:56;99108.58;;;15.73;72.34
37066;BME280;22981;43.080;25.550;2023-06-10T04:25:24;99100.23;;;15.77;72.10
37066;BME280;22981;43.080;25.550;2023-06-10T04:27:52;99105.09;;;15.78;72.06
37066;BME280;22981;43.080;25.550;2023-06-10T04:30:20;99102.13;;;15.80;71.89
37066;BME280;22981;43.080;25.550;2023-06-10T04:32:48;99099.97;;;15.79;71.83
37066;BME280;22981;43.080;25.550;2023-06-10T04:35:16;99100.28;;;15.85;71.80
37066;BME280;22981;43.080;25.550;2023-06-10T04:37:43;99096.53;;;15.96;71.66
37066;BME280;22981;43.080;25.550;2023-06-10T04:40:11;99098.75;;;16.07;71.50
37066;BME280;22981;43.080;25.550;2023-06-10T04:42:38;99099.58;;;16.18;71.50
37066;BME280;22981;43.080;25.550;2023-06-10T04:45:07;99099.34;;;16.19;71.65
37066;BME280;22981;43.080;25.550;2023-06-10T04:47:35;99093.92;;;16.22;71.84
37066;BME280;22981;43.080;25.550;2023-06-10T04:50:03;99094.73;;;16.22;71.65
37066;BME280;22981;43.080;25.550;2023-06-10T04:52:31;99093.67;;;16.26;71.40
37066;BME280;22981;43.080;25.550;2023-06-10T04:55:00;99094.78;;;16.33;71.08
37066;BME280;22981;43.080;25.550;2023-06-10T04:57:27;99093.16;;;16.39;70.29
37066;BME280;22981;43.080;25.550;2023-06-10T04:59:55;99093.47;;;16.45;69.80
37066;BME280;22981;43.080;25.550;2023-06-10T05:02:22;99101.86;;;16.54;69.49
37066;BME280;22981;43.080;25.550;2023-06-10T05:04:50;99103.22;;;16.64;69.08
37066;BME280;22981;43.080;25.550;2023-06-10T05:07:17;99098.68;;;16.75;68.87
37066;BME280;22981;43.080;25.550;2023-06-10T05:09:45;99096.80;;;16.83;68.53
37066;BME280;22981;43.080;25.550;2023-06-10T05:12:13;99096.52;;;16.92;68.20
37066;BME280;22981;43.080;25.550;2023-06-10T05:14:41;99094.91;;;16.96;67.98
37066;BME280;22981;43.080;25.550;2023-06-10T05:17:08;99093.00;;;17.02;67.93
37066;BME280;22981;43.080;25.550;2023-06-10T05:19:36;99093.02;;;17.05;67.93
37066;BME280;22981;43.080;25.550;2023-06-10T05:22:04;99093.53;;;17.12;67.98
37066;BME280;22981;43.080;25.550;2023-06-10T05:24:32;99096.25;;;17.22;67.88
37066;BME280;22981;43.080;25.550;2023-06-10T05:26:59;99089.20;;;17.31;67.80
37066;BME280;22981;43.080;25.550;2023-06-10T05:29:27;99084.83;;;17.43;67.70
37066;BME280;22981;43.080;25.550;2023-06-10T05:31:55;99084.82;;;17.50;67.68
37066;BME280;22981;43.080;25.550;2023-06-10T05:34:24;99083.21;;;17.52;67.76
37066;BME280;22981;43.080;25.550;2023-06-10T05:36:51;99081.84;;;17.57;67.72
37066;BME280;22981;43.080;25.550;2023-06-10T05:39:19;99089.64;;;17.71;67.67
37066;BME280;22981;43.080;25.550;2023-06-10T05:41:46;99085.30;;;17.81;67.38
37066;BME280;22981;43.080;25.550;2023-06-10T05:44:14;99087.19;;;17.85;67.44
37066;BME280;22981;43.080;25.550;2023-06-10T05:46:41;99088.80;;;17.91;67.47
37066;BME280;22981;43.080;25.550;2023-06-10T05:49:09;99081.72;;;18.00;67.40
37066;BME280;22981;43.080;25.550;2023-06-10T05:51:36;99081.11;;;18.11;67.25
37066;BME280;22981;43.080;25.550;2023-06-10T05:54:06;99082.18;;;18.18;67.01
37066;BME280;22981;43.080;25.550;2023-06-10T05:56:37;99082.95;;;18.26;66.98
37066;BME280;22981;43.080;25.550;2023-06-10T05:59:06;99075.34;;;18.33;66.96
37066;BME280;22981;43.080;25.550;2023-06-10T06:01:34;99080.42;;;18.42;66.92
37066;BME280;22981;43.080;25.550;2023-06-10T06:04:02;99080.09;;;18.51;66.95
37066;BME280;22981;43.080;25.550;2023-06-10T06:06:29;99080.86;;;18.60;66.88
37066;BME280;22981;43.080;25.550;2023-06-10T06:08:57;99079.45;;;18.67;66.73
37066;BME280;22981;43.080;25.550;2023-06-10T06:11:25;99084.61;;;18.71;66.56
37066;BME280;22981;43.080;25.550;2023-06-10T06:13:52;99080.55;;;18.71;66.65
37066;BME280;22981;43.080;25.550;2023-06-10T06:16:20;99086.73;;;18.74;67.00
37066;BME280;22981;43.080;25.550;2023-06-10T06:18:48;99082.37;;;18.79;67.08
37066;BME280;22981;43.080;25.550;2023-06-10T06:21:16;99081.00;;;18.81;67.24
37066;BME280;22981;43.080;25.550;2023-06-10T06:23:44;99085.33;;;18.82;67.53
37066;BME280;22981;43.080;25.550;2023-06-10T06:26:11;99080.71;;;18.83;67.96
37066;BME280;22981;43.080;25.550;2023-06-10T06:28:39;99090.75;;;18.82;67.88
37066;BME280;22981;43.080;25.550;2023-06-10T06:31:07;99089.95;;;18.79;67.74
37066;BME280;22981;43.080;25.550;2023-06-10T06:33:35;99092.41;;;18.78;67.79
37066;BME280;22981;43.080;25.550;2023-06-10T06:36:02;99087.28;;;18.76;67.68
37066;BME280;22981;43.080;25.550;2023-06-10T06:38:30;99085.13;;;18.71;67.49
37066;BME280;22981;43.080;25.550;2023-06-10T06:40:58;99084.83;;;18.75;67.57
37066;BME280;22981;43.080;25.550;2023-06-10T06:43:27;99079.14;;;18.76;67.68
37066;BME280;22981;43.080;25.550;2023-06-10T06:45:55;99079.40;;;18.78;67.78
37066;BME280;22981;43.080;25.550;2023-06-10T06:48:22;99079.91;;;18.80;68.17
37066;BME280;22981;43.080;25.550;2023-06-10T06:50:50;99081.56;;;18.78;68.33
37066;BME280;22981;43.080;25.550;2023-06-10T06:53:17;99080.16;;;18.83;68.46
37066;BME280;22981;43.080;25.550;2023-06-10T06:55:45;99081.22;;;18.87;68.66
37066;BME280;22981;43.080;25.550;2023-06-10T06:58:13;99081.46;;;18.91;68.75
37066;BME280;22981;43.080;25.550;2023-06-10T07:00:40;99078.45;;;18.95;69.13
37066;BME280;22981;43.080;25.550;2023-06-10T07:03:08;99080.30;;;18.99;69.42
37066;BME280;22981;43.080;25.550;2023-06-10T07:05:35;99084.07;;;19.04;69.35
37066;BME280;22981;43.080;25.550;2023-06-10T07:08:03;99086.22;;;19.07;69.27
37066;BME280;22981;43.080;25.550;2023-06-10T07:10:31;99085.93;;;19.08;69.37
37066;BME280;22981;43.080;25.550;2023-06-10T07:12:59;99083.20;;;19.11;69.25
37066;BME280;22981;43.080;25.550;2023-06-10T07:15:27;99087.23;;;19.16;69.47
37066;BME280;22981;43.080;25.550;2023-06-10T07:17:54;99085.81;;;19.21;69.51
37066;BME280;22981;43.080;25.550;2023-06-10T07:20:22;99090.12;;;19.24;69.58
37066;BME280;22981;43.080;25.550;2023-06-10T07:22:49;99093.09;;;19.28;69.58
37066;BME280;22981;43.080;25.550;2023-06-10T07:25:17;99094.69;;;19.32;69.48
37066;BME280;22981;43.080;25.550;2023-06-10T07:27:45;99047.34;;;19.14;69.34
37066;BME280;22981;43.080;25.550;2023-06-10T07:30:13;99087.80;;;19.42;69.19
37066;BME280;22981;43.080;25.550;2023-06-10T07:32:40;99091.55;;;19.46;69.28
37066;BME280;22981;43.080;25.550;2023-06-10T07:35:10;99087.72;;;19.49;69.20
37066;BME280;22981;43.080;25.550;2023-06-10T07:37:37;99086.06;;;19.51;68.90
37066;BME280;22981;43.080;25.550;2023-06-10T07:40:06;99088.48;;;19.52;68.74
37066;BME280;22981;43.080;25.550;2023-06-10T07:42:35;99094.70;;;19.56;68.62
37066;BME280;22981;43.080;25.550;2023-06-10T07:45:03;99093.88;;;19.58;68.62
37066;BME280;22981;43.080;25.550;2023-06-10T07:47:33;99095.20;;;19.60;68.48
37066;BME280;22981;43.080;25.550;2023-06-10T07:50:01;99091.09;;;19.65;68.40
37066;BME280;22981;43.080;25.550;2023-06-10T07:52:29;99090.77;;;19.72;68.43
37066;BME280;22981;43.080;25.550;2023-06-10T07:54:57;99096.38;;;19.78;68.35
37066;BME280;22981;43.080;25.550;2023-06-10T07:57:25;99091.42;;;19.85;68.22
37066;BME280;22981;43.080;25.550;2023-06-10T07:59:52;99090.28;;;19.91;68.11
37066;BME280;22981;43.080;25.550;2023-06-10T08:02:21;99089.91;;;19.98;67.93
37066;BME280;22981;43.080;25.550;2023-06-10T08:04:52;99088.73;;;20.04;67.95
37066;BME280;22981;43.080;25.550;2023-06-10T08:07:19;99081.35;;;20.10;67.99
37066;BME280;22981;43.080;25.550;2023-06-10T08:09:47;99086.16;;;20.15;67.85
37066;BME280;22981;43.080;25.550;2023-06-10T08:12:14;99088.33;;;20.16;67.71
37066;BME280;22981;43.080;25.550;2023-06-10T08:14:42;99084.55;;;20.14;67.86
37066;BME280;22981;43.080;25.550;2023-06-10T08:17:10;99084.30;;;20.13;68.16
37066;BME280;22981;43.080;25.550;2023-06-10T08:19:37;99077.45;;;20.16;68.51
37066;BME280;22981;43.080;25.550;2023-06-10T08:22:05;99077.91;;;20.23;68.67
37066;BME280;22981;43.080;25.550;2023-06-10T08:24:33;99068.58;;;20.29;68.59
37066;BME280;22981;43.080;25.550;2023-06-10T08:27:00;99070.14;;;20.35;68.72
37066;BME280;22981;43.080;25.550;2023-06-10T08:29:28;99065.95;;;20.43;68.54
37066;BME280;22981;43.080;25.550;2023-06-10T08:31:57;99062.88;;;20.49;68.18
37066;BME280;22981;43.080;25.550;2023-06-10T08:34:25;99064.94;;;20.58;67.84
37066;BME280;22981;43.080;25.550;2023-06-10T08:36:52;99069.08;;;20.71;67.48
37066;BME280;22981;43.080;25.550;2023-06-10T08:39:24;99063.52;;;20.79;66.89
37066;BME280;22981;43.080;25.550;2023-06-10T08:42:17;99051.94;;;20.90;66.98
37066;BME280;22981;43.080;25.550;2023-06-10T08:44:40;99059.82;;;21.05;66.98
37066;BME280;22981;43.080;25.550;2023-06-10T08:47:14;99062.73;;;21.11;66.57
37066;BME280;22981;43.080;25.550;2023-06-10T08:49:47;99060.28;;;21.26;66.59
37066;BME280;22981;43.080;25.550;2023-06-10T08:52:16;99060.64;;;21.52;65.73
37066;BME280;22981;43.080;25.550;2023-06-10T08:54:56;99059.53;;;21.67;64.85
37066;BME280;22981;43.080;25.550;2023-06-10T08:57:23;99045.52;;;21.73;64.67
37066;BME280;22981;43.080;25.550;2023-06-10T08:59:53;99044.55;;;21.94;64.35
37066;BME280;22981;43.080;25.550;2023-06-10T09:02:24;99039.02;;;22.11;63.30
37066;BME280;22981;43.080;25.550;2023-06-10T09:04:52;99044.03;;;22.06;62.73
37066;BME280;22981;43.080;25.550;2023-06-10T09:07:20;99043.03;;;22.16;62.83
37066;BME280;22981;43.080;25.550;2023-06-10T09:09:49;99048.44;;;22.30;62.66
37066;BME280;22981;43.080;25.550;2023-06-10T09:12:19;99047.84;;;22.33;61.79
37066;BME280;22981;43.080;25.550;2023-06-10T09:14:46;99046.23;;;22.32;61.96
37066;BME280;22981;43.080;25.550;2023-06-10T09:17:14;99044.14;;;22.40;62.10
37066;BME280;22981;43.080;25.550;2023-06-10T09:19:43;99045.25;;;22.50;61.60
37066;BME280;22981;43.080;25.550;2023-06-10T09:22:12;99045.56;;;22.60;61.64
37066;BME280;22981;43.080;25.550;2023-06-10T09:24:40;99038.52;;;22.70;61.42
37066;BME280;22981;43.080;25.550;2023-06-10T09:27:08;99034.03;;;22.85;61.49
37066;BME280;22981;43.080;25.550;2023-06-10T09:29:53;99032.24;;;23.03;61.17
37066;BME280;22981;43.080;25.550;2023-06-10T09:32:21;99038.82;;;23.13;60.58
37066;BME280;22981;43.080;25.550;2023-06-10T09:34:49;99026.96;;;23.18;60.53
37066;BME280;22981;43.080;25.550;2023-06-10T09:37:22;99021.16;;;23.31;59.93
37066;BME280;22981;43.080;25.550;2023-06-10T09:40:04;99016.53;;;23.40;59.91
37066;BME280;22981;43.080;25.550;2023-06-10T09:42:37;99019.72;;;23.53;59.99
37066;BME280;22981;43.080;25.550;2023-06-10T09:45:06;99012.85;;;23.64;59.43
37066;BME280;22981;43.080;25.550;2023-06-10T09:47:34;99013.70;;;23.73;59.14
37066;BME280;22981;43.080;25.550;2023-06-10T09:50:01;99007.61;;;23.85;58.52
37066;BME280;22981;43.080;25.550;2023-06-10T09:52:30;99001.45;;;23.91;58.05
37066;BME280;22981;43.080;25.550;2023-06-10T09:55:01;99005.72;;;23.94;58.31
37066;BME280;22981;43.080;25.550;2023-06-10T09:57:33;99000.72;;;23.96;58.44
37066;BME280;22981;43.080;25.550;2023-06-10T10:00:07;98999.60;;;24.06;58.73
37066;BME280;22981;43.080;25.550;2023-06-10T10:02:45;98997.44;;;24.14;58.60
37066;BME280;22981;43.080;25.550;2023-06-10T10:05:17;98999.61;;;24.23;58.66
37066;BME280;22981;43.080;25.550;2023-06-10T10:07:47;98997.14;;;24.33;57.96
37066;BME280;22981;43.080;25.550;2023-06-10T10:10:16;98988.61;;;24.26;57.61
37066;BME280;22981;43.080;25.550;2023-06-10T10:12:46;98990.54;;;24.17;57.91
37066;BME280;22981;43.080;25.550;2023-06-10T10:15:16;98992.37;;;24.10;58.13
37066;BME280;22981;43.080;25.550;2023-06-10T10:18:14;98992.70;;;24.17;57.61
37066;BME280;22981;43.080;25.550;2023-06-10T10:20:50;98991.00;;;24.10;57.69
37066;BME280;22981;43.080;25.550;2023-06-10T10:23:21;98997.77;;;24.04;57.68
37066;BME280;22981;43.080;25.550;2023-06-10T10:25:51;98994.41;;;24.16;57.29
37066;BME280;22981;43.080;25.550;2023-06-10T10:28:21;98992.88;;;24.30;57.04
37066;BME280;22981;43.080;25.550;2023-06-10T10:30:54;98989.64;;;24.36;56.15
37066;BME280;22981;43.080;25.550;2023-06-10T10:36:13;98984.05;;;24.59;55.38
37066;BME280;22981;43.080;25.550;2023-06-10T10:38:42;98978.86;;;24.66;54.77
37066;BME280;22981;43.080;25.550;2023-06-10T10:41:11;98971.77;;;24.73;54.30
37066;BME280;22981;43.080;25.550;2023-06-10T10:43:39;98967.56;;;24.85;52.92
37066;BME280;22981;43.080;25.550;2023-06-10T10:46:12;98969.48;;;24.93;51.51
37066;BME280;22981;43.080;25.550;2023-06-10T10:48:41;98964.20;;;25.03;50.92
37066;BME280;22981;43.080;25.550;2023-06-10T10:51:10;98963.22;;;25.16;50.62
37066;BME280;22981;43.080;25.550;2023-06-10T10:53:38;98966.64;;;25.28;48.96
37066;BME280;22981;43.080;25.550;2023-06-10T10:56:07;98961.86;;;25.31;48.33
37066;BME280;22981;43.080;25.550;2023-06-10T10:58:35;98963.22;;;25.31;48.40
37066;BME280;22981;43.080;25.550;2023-06-10T11:01:15;98958.69;;;25.35;48.77
37066;BME280;22981;43.080;25.550;2023-06-10T11:04:00;98917.00;;;25.14;48.69
37066;BME280;22981;43.080;25.550;2023-06-10T11:06:53;98952.71;;;25.41;49.08
37066;BME280;22981;43.080;25.550;2023-06-10T11:33:39;98912.35;;;25.80;49.76
37066;BME280;22981;43.080;25.550;2023-06-10T11:36:07;98903.71;;;25.90;49.62
37066;BME280;22981;43.080;25.550;2023-06-10T11:38:36;98914.59;;;25.93;50.14
37066;BME280;22981;43.080;25.550;2023-06-10T11:41:04;98908.58;;;26.00;49.80
37066;BME280;22981;43.080;25.550;2023-06-10T11:43:32;98908.38;;;26.05;49.69
37066;BME280;22981;43.080;25.550;2023-06-10T11:46:00;98906.22;;;26.10;49.28
37066;BME280;22981;43.080;25.550;2023-06-10T11:48:28;98897.90;;;26.13;49.05
37066;BME280;22981;43.080;25.550;2023-06-10T11:50:56;98899.38;;;26.16;48.57
37066;BME280;22981;43.080;25.550;2023-06-10T11:53:24;98887.16;;;26.20;48.46
37066;BME280;22981;43.080;25.550;2023-06-10T11:55:53;98856.35;;;26.02;48.24
37066;BME280;22981;43.080;25.550;2023-06-10T11:58:22;98883.05;;;26.20;47.90
37066;BME280;22981;43.080;25.550;2023-06-10T12:00:51;98876.19;;;26.20;47.48
37066;BME280;22981;43.080;25.550;2023-06-10T12:03:21;98874.72;;;26.22;47.56
37066;BME280;22981;43.080;25.550;2023-06-10T12:08:24;98876.18;;;26.14;47.00
37066;BME280;22981;43.080;25.550;2023-06-10T12:10:52;98870.20;;;26.06;47.63
37066;BME280;22981;43.080;25.550;2023-06-10T12:13:20;98866.44;;;26.10;47.58
37066;BME280;22981;43.080;25.550;2023-06-10T12:15:49;98863.62;;;26.19;46.81
37066;BME280;22981;43.080;25.550;2023-06-10T12:18:24;98862.59;;;26.17;47.18
37066;BME280;22981;43.080;25.550;2023-06-10T12:20:52;98859.06;;;26.23;47.46
37066;BME280;22981;43.080;25.550;2023-06-10T12:23:25;98858.39;;;26.32;46.97
37066;BME280;22981;43.080;25.550;2023-06-10T12:25:55;98857.28;;;26.39;46.40
37066;BME280;22981;43.080;25.550;2023-06-10T12:28:24;98858.78;;;26.43;45.38
37066;BME280;22981;43.080;25.550;2023-06-10T12:31:07;98848.13;;;26.41;45.31
37066;BME280;22981;43.080;25.550;2023-06-10T12:33:22;98856.52;;;26.45;46.00
37066;BME280;22981;43.080;25.550;2023-06-10T12:35:51;98855.05;;;26.48;45.63
37066;BME280;22981;43.080;25.550;2023-06-10T12:38:23;98853.90;;;26.49;45.27
37066;BME280;22981;43.080;25.550;2023-06-10T12:40:51;98853.77;;;26.45;45.13
37066;BME280;22981;43.080;25.550;2023-06-10T12:43:23;98847.39;;;26.47;45.13
37066;BME280;22981;43.080;25.550;2023-06-10T12:45:50;98852.52;;;26.49;44.96
37066;BME280;22981;43.080;25.550;2023-06-10T12:48:23;98856.64;;;26.49;44.62
37066;BME280;22981;43.080;25.550;2023-06-10T12:50:56;98853.17;;;26.39;44.66
37066;BME280;22981;43.080;25.550;2023-06-10T12:53:25;98857.68;;;26.17;44.88
37066;BME280;22981;43.080;25.550;2023-06-10T12:55:55;98856.35;;;26.02;44.76
37066;BME280;22981;43.080;25.550;2023-06-10T12:58:24;98850.72;;;25.92;44.54
37066;BME280;22981;43.080;25.550;2023-06-10T13:00:53;98853.59;;;25.96;44.73
37066;BME280;22981;43.080;25.550;2023-06-10T13:03:20;98845.52;;;26.06;45.14
37066;BME280;22981;43.080;25.550;2023-06-10T13:05:48;98851.94;;;26.16;45.01
37066;BME280;22981;43.080;25.550;2023-06-10T13:08:15;98841.93;;;26.26;44.31
37066;BME280;22981;43.080;25.550;2023-06-10T13:10:43;98846.71;;;26.23;43.85
37066;BME280;22981;43.080;25.550;2023-06-10T13:13:11;98832.02;;;26.07;43.80
37066;BME280;22981;43.080;25.550;2023-06-10T13:15:42;98834.98;;;26.02;43.78
37066;BME280;22981;43.080;25.550;2023-06-10T13:18:13;98830.65;;;26.07;43.95
37066;BME280;22981;43.080;25.550;2023-06-10T13:20:41;98836.40;;;26.14;43.75
37066;BME280;22981;43.080;25.550;2023-06-10T13:23:14;98832.25;;;26.08;43.81
37066;BME280;22981;43.080;25.550;2023-06-10T13:25:45;98836.89;;;25.95;43.94
37066;BME280;22981;43.080;25.550;2023-06-10T13:28:14;98832.03;;;25.80;44.40
37066;BME280;22981;43.080;25.550;2023-06-10T13:30:41;98842.34;;;25.68;44.53